Guasti, CA (91743)

6:58 PM PDT on April 27, 2017 (GMT -0700)
Ontario International | | Change Station
Active Advisory: High Wind Watch

Elev 942 ft 34.06 °N, 117.60 °W | Updated 5 minutes ago

Mostly Cloudy
Mostly Cloudy
73 °F
Feels Like 73 °F
N
8
Wind Variable Wind from SW

Today
High -- | Low -- °F
--% Chance of Precip.
Yesterday
High -- | Low -- °F
Precip. -- in
Pressure 29.70 in
Visibility 10.0 miles
Clouds Few 15000 ft
Mostly Cloudy 22000 ft
Dew Point 49 °F
Humidity 42%
Rainfall 0.00 in
Snow Depth Not available.
6:05 AM 7:31 PM
Waxing Crescent, 4% visible
METAR KONT 280153Z 22007KT 10SM FEW150 BKN220 23/09 A2972 RMK AO2 SLP055 T02280094
Pressure 29.70 in
Visibility 10.0 miles
Clouds Few 15000 ft
Mostly Cloudy 22000 ft
Dew Point 49 °F
Humidity 42%
Rainfall 0.00 in
Snow Depth Not available.
6:05 AM 7:31 PM
Waxing Crescent, 4% visible
METAR KONT 280153Z 22007KT 10SM FEW150 BKN220 23/09 A2972 RMK AO2 SLP055 T02280094

Get Your Daily Forecast Email!

Thanks for signing up!

Be on the lookout for a verification email in your inbox.

You'll start receiving severe weather alerts in your inbox..

×

10-Day Weather Forecast

Almanac

Astronomy

Apr. 27, 2017 Rise Set
Actual Time
Civil Twilight
Nautical Twilight
Astronomical Twilight
Moon
Length of Visible Light
Length of Day
Tomorrow will be .
, % of the Moon is Illuminated

Today's Extremes

State Highs State Lows

Community

WunderPhotos

WunderBlog® & News

Nearby

Air Quality

  Air Quality AQ Index Pollutant
Not available.

Snow Depth

Station Depth Elevation

Earthquake Activity

City Distance Mag. Time & Date
Minimum magnitude displayed is 2.5.

Coastal Water Temperatures

Place Temperature

Stations

Nearby Weather Stations

Station Location Temp. Windchill Dew Point Humidity Wind Precip. Elev Updated Type
                   

Watches & Warnings

High Wind Watch
Issued: 1:41 PM PDT Apr. 27, 2017 – National Weather Service

... High wind watch in effect from Friday evening through Saturday
afternoon...

The National Weather Service in San Diego has issued a high wind
watch, which is in effect from Friday evening through Saturday
afternoon.

* Winds... areas of northeast winds 25 to 35 mph with local gusts
60 to 65 mph.

* Timing... from late evening Friday through midday Saturday.

* Location... through and below passes and canyons, especially
below Cajon Pass and inland parts of Orange County, including
the Santa Ana Mountains and foothills.

* Impacts... hazardous travel conditions will occur due to sudden,
strong cross-winds, especially for high-profile vehicles. Tree
and utility line damage will be possible.

* Outlook... winds will diminish rapidly Saturday afternoon.

Precautionary/preparedness actions...

A high wind watch means there is the potential for a hazardous
high wind event. Sustained winds of at least 40 mph... or gusts
of 58 mph or stronger may occur. Continue to monitor the latest
forecasts.



Maxwell